Webcam

2021/12/04 12:20 EBBR 041220Z 27007KT 9999 -RA FEW006 SCT008 BKN014 06/04 Q0995 TEMPO 4000 RA

Webcam

--- Refresh now ---